Extended Streamflow Prediction
Issued by NWS Lower Mississippi RFC

Home | Current Version | Previous Version | Text Only | Print | Product List | Glossary On
Versions: 1 2 3 4 5 6 7 8 9 10 11 12 13 14 15 16 17 18 19 20 21 22 23 24 25 26 27 28 29 30 31 32 33 34 35
000
FGUS64 KORN 281908
ESPORN
EXTENDED STREAMFLOW PREDICTION
NATIONAL WEATHER SERVICE RIVER FORECAST CENTER, SLIDELL, LA
1307 PM CST WED JAN 28 2015

   DATE   CPGM7 CIRI2 NMDM7 TPTT1 CRTM7 OSGA4 MEMT1 TRPM6 HEEA4
01-28-15   12.4  19.4   7.8  10.9  10.8   2.8   2.5  12.7   8.1
01-29-15   12.6  20.1   8.1  11.0  10.9   3.0   2.7  13.1   8.4
01-30-15   12.9  20.7   8.9  11.6  11.3   3.2   2.8  13.5   8.9
01-31-15   12.8  20.5   9.2  12.2  11.9   3.8   3.2  13.9   9.3
02-01-15   12.4  20.1   8.8  12.1  12.2   4.5   4.0  14.3   9.8
02-02-15   12.1  19.7   8.4  11.7  11.8   4.3   4.2  14.9  10.3
02-03-15   11.8  19.4   8.1  11.4  11.5   3.9   3.8  14.8  10.5
02-04-15   11.6  19.0   7.7  11.1  11.2   3.5   3.4  14.4  10.2
02-05-15   11.4  18.8   7.5  10.8  10.9   3.2   3.2  14.0   9.8
02-06-15   11.2  18.5   7.3  10.5  10.6   2.9   2.9  13.8   9.7
02-07-15   11.0  18.3   7.0  10.3  10.4   2.7   2.6  13.5   9.4
02-08-15   10.8  18.1   6.8  10.1  10.2   2.5   2.5  13.4   9.1
02-09-15   10.6  17.8   6.6   9.9  10.0   2.3   2.2  13.2   9.1
02-10-15   10.4  17.6   6.4   9.7   9.8   2.0   2.0  13.0   8.8
02-11-15   10.2  17.5   6.2   9.5   9.6   1.8   1.8  12.8   8.6
02-12-15   10.0  17.4   6.1   9.4   9.4   1.6   1.6  12.5   8.5
02-13-15    9.8  17.2   5.9   9.3   9.3   1.4   1.5  12.4   8.3
02-14-15    9.6  17.1   5.8   9.2   9.2   1.3   1.3  12.3   8.2
02-15-15    9.4  17.0   5.7   9.1   9.1   1.2   1.2  12.2   8.0
02-16-15    9.2  16.9   5.6   9.0   9.0   1.1   1.1  12.1   8.0
02-17-15    9.0  16.7   5.5   8.9   9.0   1.0   1.0  12.0   7.9
02-18-15    8.8  16.6   5.4   8.7   8.8   0.9   0.9  11.9   7.8
02-19-15    8.6  16.5   5.3   8.6   8.7   0.8   0.9  11.8   7.7
02-20-15    8.4  16.4   5.2   8.5   8.6   0.7   0.7  11.7   7.7
02-21-15    8.3  16.3   5.1   8.4   8.5   0.6   0.6  11.6   7.5
02-22-15    8.2  16.2   5.0   8.3   8.4   0.5   0.5  11.5   7.5
02-23-15    8.0  16.1   4.9   8.2   8.4   0.4   0.4  11.4   7.4
02-24-15    7.9  15.9   4.8   8.1   8.2   0.3   0.3  11.4   7.3

   DATE   ARSA4 GEEM6 VCKM6 NTZM6 RRLL1 BTRL1 DONL1 RRVL1 NORL1
01-28-15    7.4  17.9  14.5  22.9  28.1  14.3   8.5   5.5   3.4
01-29-15    7.6  17.8  13.8  22.1  27.1  13.4   8.1   5.4   3.3
01-30-15    7.9  18.1  13.8  21.5  26.3  12.5   7.6   5.2   3.4
01-31-15    8.3  18.5  14.0  21.5  25.7  11.7   7.2   5.0   3.2
02-01-15    8.7  18.9  14.4  21.7  25.8  11.5   7.0   4.9   3.1
02-02-15    9.2  19.3  14.8  22.1  25.9  11.6   6.8   4.7   3.4
02-03-15    9.6  19.7  15.2  22.5  26.3  11.9   7.0   5.1   3.3
02-04-15    9.9  20.1  15.6  22.9  26.7  12.3   7.1   5.1   3.4
02-05-15    9.6  20.1  16.0  23.3  27.1  12.7   7.2   5.1   3.5
02-06-15    9.3  19.8  16.0  23.7  27.5  13.0   7.3   5.0   3.5
02-07-15    9.1  19.5  15.7  23.7  27.8  13.4   7.5   5.0   3.4
02-08-15    8.8  19.3  15.5  23.4  27.8  13.6   7.7   4.7   3.2
02-09-15    8.6  19.1  15.3  23.2  27.6  13.5   7.8   4.6   3.1
02-10-15    8.6  19.0  15.1  23.0  27.4  13.3   7.6   4.4   3.0
02-11-15    8.3  18.9  15.0  22.8  27.2  13.2   7.4   4.4   2.9
02-12-15    8.1  18.7  14.9  22.8  27.1  13.0   7.4   4.3   2.8
02-13-15    8.0  18.6  14.8  22.6  27.0  12.9   7.3   4.3   2.7
02-14-15    7.8  18.4  14.6  22.5  26.9  12.9   7.3   4.3   2.7
02-15-15    7.7  18.3  14.4  22.4  26.8  12.7   7.2   4.2   2.6
02-16-15    7.6  18.2  14.4  22.3  26.6  12.6   7.1   4.2   2.6
02-17-15    7.6  18.1  14.3  22.2  26.5  12.5   7.0   4.2   2.5
02-18-15    7.5  18.1  14.2  22.2  26.5  12.4   7.0   4.1   2.5
02-19-15    7.4  18.0  14.2  22.1  26.5  12.4   7.0   4.1   2.5
02-20-15    7.3  18.0  14.2  22.1  26.4  12.4   7.0   4.1   2.5
02-21-15    7.3  17.9  14.1  22.1  26.4  12.3   6.9   4.1   2.4
02-22-15    7.2  17.8  14.1  22.0  26.4  12.3   6.9   4.0   2.4
02-23-15    7.1  17.8  13.9  22.0  26.3  12.3   6.9   4.0   2.4
02-24-15    7.0  17.7  14.0  21.9  26.3  12.2   6.9   4.0   2.4

NOTE: STAGE FORECASTS ARE BASED ON FUTURE RAINFALL COVERING
THE NEXT 24 HOURS.

END ORN


$$





USA.gov is the U.S. government's official web portal to all federal, state and local government web resources and services.